Time;durP1;ratioP1;P1;durP2;ratioP2;P2;SDS_P1;SDS_P2;PMS_P1;PMS_P2;Temp;Humidity;BMP_temperature;BMP_pressure;BME280_temperature;BME280_humidity;BME280_pressure;Samples;Min_cycle;Max_cycle;Signal;HPM_P1;HPM_P2
2022/10/31 00:01:18;;;;;;;;;10.00;7.00;;;;;14.88;68.73;101735.13;5040721;28;45538;-77
2022/10/31 00:03:44;;;;;;;;;11.25;8.50;;;;;14.85;68.82;101729.97;5059306;28;45407;-77
2022/10/31 00:06:09;;;;;;;;;10.50;9.00;;;;;14.83;69.33;101740.50;5058601;28;59207;-77
2022/10/31 00:08:34;;;;;;;;;8.00;8.00;;;;;14.81;68.92;101738.84;5059023;28;46291;-77
2022/10/31 00:11:00;;;;;;;;;9.50;6.00;;;;;14.80;69.02;101739.72;5058064;28;72232;-77
2022/10/31 00:13:25;;;;;;;;;10.00;6.00;;;;;14.80;69.01;101735.38;5059175;28;45291;-77
2022/10/31 00:15:50;;;;;;;;;7.75;6.25;;;;;14.79;69.42;101748.50;5039903;28;67679;-77
2022/10/31 00:18:16;;;;;;;;;7.25;6.00;;;;;14.75;69.01;101746.91;5057892;28;75113;-77
2022/10/31 00:20:41;;;;;;;;;10.50;8.25;;;;;14.71;69.09;101744.34;5039656;28;73293;-77
2022/10/31 00:23:07;;;;;;;;;9.00;7.25;;;;;14.67;69.25;101752.34;5058090;28;67551;-77
2022/10/31 00:25:35;;;;;;;;;8.25;8.00;;;;;14.63;69.28;101748.09;5058905;28;45342;-77
2022/10/31 00:28:01;;;;;;;;;6.00;6.00;;;;;14.62;69.13;101743.78;5058885;28;46052;-77
2022/10/31 00:30:26;;;;;;;;;7.75;6.00;;;;;14.64;69.55;101737.56;5040399;28;45449;-77
2022/10/31 00:32:52;;;;;;;;;10.75;9.00;;;;;14.62;69.44;101743.78;5058627;28;45621;-77
2022/10/31 00:35:17;;;;;;;;;16.00;8.50;;;;;14.59;69.09;101741.25;5057699;28;67859;-77
2022/10/31 00:37:42;;;;;;;;;9.00;8.50;;;;;14.55;69.51;101736.97;5058588;28;45387;-77
2022/10/31 00:40:09;;;;;;;;;9.00;8.00;;;;;14.50;69.51;101729.22;5057588;28;71168;-77
2022/10/31 00:42:34;;;;;;;;;10.00;6.50;;;;;14.48;69.61;101729.28;5058455;28;45297;-77
2022/10/31 00:44:59;;;;;;;;;11.75;9.00;;;;;14.44;69.66;101738.13;5039167;28;70292;-77
2022/10/31 00:47:24;;;;;;;;;9.75;8.75;;;;;14.42;69.92;101733.84;5057339;28;73554;-77
2022/10/31 00:49:50;;;;;;;;;9.25;8.50;;;;;14.41;70.08;101733.00;5057592;28;69060;-77
2022/10/31 00:52:15;;;;;;;;;12.00;8.25;;;;;14.41;70.30;101737.34;5057564;28;69336;-78
2022/10/31 00:54:40;;;;;;;;;10.00;10.00;;;;;14.41;70.14;101732.13;5057487;28;69518;-77
2022/10/31 00:57:06;;;;;;;;;12.75;8.00;;;;;14.41;70.01;101740.84;5057351;28;73102;-77
2022/10/31 00:59:31;;;;;;;;;9.75;8.00;;;;;14.45;70.14;101739.84;5038962;28;73302;-77
2022/10/31 01:01:56;;;;;;;;;7.75;7.75;;;;;14.46;70.15;101730.22;5057398;28;69348;-77
2022/10/31 01:04:22;;;;;;;;;10.00;8.50;;;;;14.49;70.12;101732.78;5058319;28;45248;-77
2022/10/31 01:06:47;;;;;;;;;8.25;8.00;;;;;14.50;70.41;101729.22;5057911;28;50947;-77
2022/10/31 01:09:12;;;;;;;;;14.25;10.00;;;;;14.51;70.00;101733.56;5057204;28;71814;-77
2022/10/31 01:11:38;;;;;;;;;7.50;7.50;;;;;14.53;69.87;101729.16;5056875;28;68111;-78
2022/10/31 01:14:03;;;;;;;;;9.75;7.25;;;;;14.56;69.90;101718.59;5056965;28;69978;-77
2022/10/31 01:16:29;;;;;;;;;8.25;6.50;;;;;14.60;70.15;101722.84;5057989;28;45308;-77
2022/10/31 01:18:55;;;;;;;;;9.75;9.50;;;;;14.63;70.28;101706.19;5040123;28;45878;-77
2022/10/31 01:21:22;;;;;;;;;8.00;8.00;;;;;14.67;70.24;101713.03;5036556;28;45489;-77
2022/10/31 01:23:48;;;;;;;;;11.00;10.25;;;;;14.69;70.57;101705.97;5037778;28;45390;-77
2022/10/31 01:26:18;;;;;;;;;9.25;6.00;;;;;14.70;70.18;101703.31;5053342;28;46396;-77
2022/10/31 01:28:48;;;;;;;;;9.50;9.00;;;;;14.74;70.36;101698.00;5052999;28;45660;-77
2022/10/31 01:31:14;;;;;;;;;10.50;9.50;;;;;14.78;70.30;101699.59;5037749;28;45386;-77
2022/10/31 01:33:39;;;;;;;;;10.50;9.50;;;;;14.79;70.48;101680.38;5037595;28;45515;-77
2022/10/31 01:36:16;;;;;;;;;15.00;10.50;;;;;14.82;70.20;101685.50;5036621;28;70790;-77
2022/10/31 01:38:41;;;;;;;;;10.75;9.75;;;;;14.83;70.19;101677.59;5037659;28;45314;-77
2022/10/31 01:41:08;;;;;;;;;10.25;9.00;;;;;14.85;70.35;101674.91;5037422;28;48116;-77
2022/10/31 01:43:53;;;;;;;;;10.25;8.00;;;;;14.87;70.10;101678.34;5035779;28;45414;-77
2022/10/31 01:46:39;;;;;;;;;11.50;9.75;;;;;14.89;70.55;101676.53;5037417;28;46489;-77
2022/10/31 01:49:11;;;;;;;;;14.00;9.00;;;;;14.92;70.46;101678.22;5036249;28;45472;-78
2022/10/31 01:51:40;;;;;;;;;11.50;11.00;;;;;14.95;70.75;101670.22;5036326;28;45306;-77
2022/10/31 01:54:08;;;;;;;;;17.50;13.25;;;;;15.01;70.48;101668.28;5037485;28;45444;-78
2022/10/31 01:56:37;;;;;;;;;13.25;12.00;;;;;15.05;70.49;101669.03;5037143;28;47496;-77
2022/10/31 01:59:07;;;;;;;;;13.00;11.50;;;;;15.09;70.34;101660.16;5035760;28;45707;-77
2022/10/31 02:01:32;;;;;;;;;14.50;12.50;;;;;15.14;70.31;101660.88;5036163;28;45496;-77
2022/10/31 02:03:57;;;;;;;;;16.25;12.25;;;;;15.19;70.08;101665.94;5036294;28;67036;-77
2022/10/31 02:06:38;;;;;;;;;18.00;12.75;;;;;15.21;70.33;101661.50;5035051;28;72067;-77
2022/10/31 02:09:05;;;;;;;;;17.50;16.00;;;;;15.22;70.75;101668.47;5035843;28;45718;-77
2022/10/31 02:11:31;;;;;;;;;22.25;18.25;;;;;15.20;70.55;101659.81;5036814;28;45314;-77
2022/10/31 02:13:58;;;;;;;;;20.25;16.25;;;;;15.19;70.36;101665.94;5037206;28;45349;-77
2022/10/31 02:16:23;;;;;;;;;19.50;17.00;;;;;15.19;70.53;101665.94;5035756;28;47447;-77
2022/10/31 02:18:49;;;;;;;;;19.50;16.75;;;;;15.20;70.43;101660.66;5035624;28;45369;-77
2022/10/31 02:21:35;;;;;;;;;16.25;14.75;;;;;15.22;70.33;101666.69;5048789;28;67103;-77
2022/10/31 02:24:36;;;;;;;;;12.00;11.00;;;;;15.27;70.14;101653.44;5039030;28;45301;-77
2022/10/31 02:27:16;;;;;;;;;17.75;16.00;;;;;15.32;70.23;101656.75;5038388;28;45445;-77
2022/10/31 02:30:07;;;;;;;;;17.50;14.50;;;;;15.33;70.23;101642.75;5039022;28;45729;-77
2022/10/31 02:32:54;;;;;;;;;17.75;13.00;;;;;15.32;69.99;101645.41;5038948;28;45373;-77
2022/10/31 02:35:31;;;;;;;;;17.75;16.50;;;;;15.34;70.64;101646.22;5038804;28;45296;-77
2022/10/31 02:38:22;;;;;;;;;17.75;16.00;;;;;15.34;70.41;101641.84;5056661;28;46243;-78
2022/10/31 02:40:47;;;;;;;;;14.00;11.00;;;;;15.35;70.44;101646.16;4974305;28;45840;-77
2022/10/31 02:43:21;;;;;;;;;20.33;17.00;;;;;15.38;70.51;101642.56;4974841;28;45429;-77
2022/10/31 02:46:08;;;;;;;;;17.75;17.50;;;;;15.41;70.31;101629.34;4975012;28;45768;-77
2022/10/31 02:48:37;;;;;;;;;20.75;18.75;;;;;15.42;70.33;101628.44;4958633;28;46350;-77
2022/10/31 02:51:03;;;;;;;;;19.75;18.00;;;;;15.44;70.46;101626.63;4974751;28;45837;-77
2022/10/31 02:53:33;;;;;;;;;21.50;19.00;;;;;15.47;70.23;101622.13;4957642;28;68605;-77
2022/10/31 02:56:02;;;;;;;;;22.75;18.75;;;;;15.48;70.37;101623.84;4974362;28;45403;-77
2022/10/31 02:58:31;;;;;;;;;24.50;22.00;;;;;15.53;70.00;101621.06;4974578;28;46967;-77
2022/10/31 03:01:08;;;;;;;;;23.50;21.25;;;;;15.54;69.92;101612.25;4974588;28;45498;-77
2022/10/31 03:03:42;;;;;;;;;17.25;14.00;;;;;15.54;70.16;101616.66;4974786;28;45362;-77
2022/10/31 03:06:20;;;;;;;;;25.25;20.00;;;;;15.53;70.20;101610.56;4974701;28;45404;-77
2022/10/31 03:09:07;;;;;;;;;17.75;13.75;;;;;15.55;69.94;101613.97;4974425;28;47402;-77
2022/10/31 03:12:02;;;;;;;;;27.00;22.75;;;;;15.57;69.99;101611.31;4974106;28;45395;-77
2022/10/31 03:14:37;;;;;;;;;23.25;19.00;;;;;15.58;69.90;101611.25;4881837;29;45359;-78
2022/10/31 03:17:05;;;;;;;;;23.00;21.50;;;;;15.55;69.63;101611.34;4889535;28;45531;-77
2022/10/31 03:19:43;;;;;;;;;23.50;20.25;;;;;15.54;69.89;101599.13;4954749;28;46285;-77
2022/10/31 03:22:23;;;;;;;;;26.00;23.00;;;;;15.54;70.04;101604.38;4935743;28;45892;-77
2022/10/31 03:24:49;;;;;;;;;33.50;27.50;;;;;15.54;69.37;101603.53;4919324;28;45947;-77
2022/10/31 03:27:16;;;;;;;;;27.25;24.00;;;;;15.53;69.58;101602.69;4919779;28;45677;-77
2022/10/31 03:29:43;;;;;;;;;30.50;27.00;;;;;15.52;69.65;101600.13;4919330;28;47327;-77
2022/10/31 03:32:14;;;;;;;;;27.75;25.00;;;;;15.49;69.95;101596.69;4919297;28;45451;-77
2022/10/31 03:34:41;;;;;;;;;31.00;25.25;;;;;15.49;69.83;101595.84;4919403;28;45535;-77
2022/10/31 03:37:10;;;;;;;;;28.50;27.25;;;;;15.47;69.84;101593.28;4935669;28;45414;-78
2022/10/31 03:39:37;;;;;;;;;29.00;25.25;;;;;15.48;70.25;101592.34;4918888;28;45402;-77
2022/10/31 03:42:08;;;;;;;;;31.50;24.00;;;;;15.48;70.10;101592.34;4935474;28;45826;-77
2022/10/31 03:44:34;;;;;;;;;32.50;24.25;;;;;15.49;69.87;101587.97;4935197;28;45358;-77
2022/10/31 03:47:01;;;;;;;;;30.50;27.00;;;;;15.45;69.38;101571.50;4935479;28;45561;-77
2022/10/31 03:49:27;;;;;;;;;23.50;19.00;;;;;15.43;69.85;101570.69;4919181;28;48385;-77
2022/10/31 03:52:01;;;;;;;;;29.75;23.00;;;;;15.42;69.68;101570.75;4983830;28;71405;-77
2022/10/31 03:54:38;;;;;;;;;28.50;20.50;;;;;15.43;69.65;101560.19;5030778;28;45312;-77
2022/10/31 03:57:23;;;;;;;;;31.75;24.00;;;;;15.42;69.74;101555.00;5031175;28;45543;-77
2022/10/31 03:59:53;;;;;;;;;25.75;23.00;;;;;15.42;69.78;101560.25;5015485;28;45448;-77
2022/10/31 04:02:21;;;;;;;;;25.75;21.25;;;;;15.42;70.17;101558.47;5014095;28;45804;-77
2022/10/31 04:04:47;;;;;;;;;27.75;23.00;;;;;15.45;70.18;101565.34;5014477;28;45477;-77
2022/10/31 04:07:13;;;;;;;;;30.75;28.50;;;;;15.46;70.41;101564.47;5030200;28;65673;-78
2022/10/31 04:09:42;;;;;;;;;26.75;21.50;;;;;15.46;69.78;101561.84;5013490;28;48546;-77
2022/10/31 04:12:08;;;;;;;;;23.50;22.75;;;;;15.46;70.09;101564.47;5014187;28;45317;-77
2022/10/31 04:14:37;;;;;;;;;24.00;20.50;;;;;15.46;70.35;101564.47;5013417;28;65148;-77
2022/10/31 04:17:05;;;;;;;;;25.00;19.00;;;;;15.45;70.33;101566.25;5030890;28;45386;-77
2022/10/31 04:19:32;;;;;;;;;26.75;23.25;;;;;15.46;70.05;101562.69;5030523;28;48759;-77
2022/10/31 04:21:57;;;;;;;;;25.25;20.00;;;;;15.46;70.32;101565.31;5049409;28;45482;-77
2022/10/31 04:24:23;;;;;;;;;23.00;18.50;;;;;15.46;70.15;101564.47;5034412;28;63846;-77
2022/10/31 04:26:48;;;;;;;;;25.00;23.25;;;;;15.47;70.35;101566.16;5034228;28;69345;-77
2022/10/31 04:29:13;;;;;;;;;22.00;21.50;;;;;15.48;70.35;101562.63;5034199;28;76543;-77
2022/10/31 04:31:39;;;;;;;;;25.75;20.00;;;;;15.49;70.18;101564.38;5034438;28;59853;-77
2022/10/31 04:34:04;;;;;;;;;28.00;21.75;;;;;15.46;70.57;101562.69;5035015;28;45644;-77
2022/10/31 04:36:29;;;;;;;;;24.75;22.75;;;;;15.45;70.37;101557.50;5034175;28;59047;-77
2022/10/31 04:38:55;;;;;;;;;20.50;17.00;;;;;15.44;70.49;101559.25;5034145;28;67959;-77
2022/10/31 04:41:20;;;;;;;;;24.75;20.75;;;;;15.44;70.46;101559.25;5034057;28;72019;-77
2022/10/31 04:43:45;;;;;;;;;23.00;20.00;;;;;15.45;70.52;101555.75;5034750;28;45482;-77
2022/10/31 04:46:11;;;;;;;;;26.50;22.50;;;;;15.44;70.71;101551.41;5035003;28;70435;-77
2022/10/31 04:48:36;;;;;;;;;28.00;24.75;;;;;15.43;70.75;101536.59;5038139;28;53156;-77
2022/10/31 04:51:02;;;;;;;;;23.25;20.75;;;;;15.43;70.34;101541.84;5037094;28;70832;-77
2022/10/31 04:53:28;;;;;;;;;24.50;21.75;;;;;15.42;70.62;101527.00;5037275;28;45263;-77
2022/10/31 04:55:53;;;;;;;;;28.75;22.25;;;;;15.41;70.87;101525.25;5038534;28;45229;-77
2022/10/31 04:58:18;;;;;;;;;37.00;25.75;;;;;15.41;70.93;101527.03;5037084;28;72895;-78
2022/10/31 05:00:44;;;;;;;;;27.50;20.25;;;;;15.43;70.92;101523.47;5037228;28;71364;-77
2022/10/31 05:03:09;;;;;;;;;28.25;26.00;;;;;15.43;70.91;101523.47;5036664;28;49987;-77
2022/10/31 05:05:34;;;;;;;;;28.75;24.75;;;;;15.42;70.75;101513.03;5019865;28;45360;-77
2022/10/31 05:08:00;;;;;;;;;32.50;27.25;;;;;15.41;70.88;101509.53;5037556;28;60830;-77
2022/10/31 05:10:28;;;;;;;;;24.75;23.25;;;;;15.40;70.78;101505.19;5036768;28;45328;-77
2022/10/31 05:12:55;;;;;;;;;36.25;26.75;;;;;15.39;70.83;101511.34;5038134;28;45306;-77
2022/10/31 05:15:22;;;;;;;;;27.25;25.25;;;;;15.39;71.37;101511.34;5037135;28;45291;-77
2022/10/31 05:17:48;;;;;;;;;33.50;23.50;;;;;15.42;71.21;101510.41;5036737;28;45528;-77
2022/10/31 05:20:15;;;;;;;;;27.00;22.50;;;;;15.45;70.99;101510.25;5036031;28;45382;-77
2022/10/31 05:22:52;;;;;;;;;19.50;19.00;;;;;15.45;70.91;101507.63;5038082;28;45405;-77
2022/10/31 05:25:18;;;;;;;;;26.25;24.75;;;;;15.45;71.13;101505.03;5036840;28;45341;-78
2022/10/31 05:27:45;;;;;;;;;29.00;24.75;;;;;15.45;71.19;101500.66;5037850;28;45319;-77
2022/10/31 05:30:13;;;;;;;;;23.00;22.00;;;;;15.47;70.92;101503.19;5037701;28;45774;-77
2022/10/31 05:32:43;;;;;;;;;24.25;22.50;;;;;15.50;71.36;101500.47;5037901;28;45390;-77
2022/10/31 05:35:10;;;;;;;;;27.75;21.25;;;;;15.52;71.26;101495.16;5037326;28;45469;-77
2022/10/31 05:37:35;;;;;;;;;20.75;18.25;;;;;15.53;71.46;101489.00;5037558;28;46283;-77
2022/10/31 05:40:02;;;;;;;;;27.50;20.75;;;;;15.53;71.06;101486.38;5036367;28;45407;-78
2022/10/31 05:42:28;;;;;;;;;21.75;18.00;;;;;15.54;70.76;101480.22;5036525;28;45447;-77
2022/10/31 05:44:53;;;;;;;;;23.50;19.00;;;;;15.55;71.17;101476.69;5035164;28;67293;-77
2022/10/31 05:47:18;;;;;;;;;22.50;19.00;;;;;15.55;71.27;101471.44;5036368;28;75634;-77
2022/10/31 05:49:44;;;;;;;;;20.50;14.50;;;;;15.55;71.33;101479.31;5036042;28;71656;-77
2022/10/31 05:52:09;;;;;;;;;24.00;21.75;;;;;15.54;71.63;101474.97;5052169;28;69483;-77
2022/10/31 05:54:34;;;;;;;;;24.75;20.00;;;;;15.52;71.36;101480.28;5035291;28;66794;-77
2022/10/31 05:57:00;;;;;;;;;20.25;18.50;;;;;15.51;71.61;101477.69;5051334;28;53801;-77
2022/10/31 05:59:25;;;;;;;;;17.75;15.00;;;;;15.53;71.30;101476.75;5036408;28;69020;-77
2022/10/31 06:01:50;;;;;;;;;23.50;18.75;;;;;15.55;71.04;101464.41;5036614;28;63470;-77
2022/10/31 06:04:15;;;;;;;;;19.50;19.50;;;;;15.57;71.30;101462.59;5036128;28;62928;-77
2022/10/31 06:06:41;;;;;;;;;19.75;18.00;;;;;15.58;71.25;101464.31;5036100;28;76424;-77
2022/10/31 06:09:06;;;;;;;;;23.75;18.50;;;;;15.57;71.20;101462.59;5036256;28;68095;-77
2022/10/31 06:11:31;;;;;;;;;20.00;17.75;;;;;15.57;71.63;101459.97;5036142;28;67995;-77
2022/10/31 06:13:57;;;;;;;;;23.75;19.00;;;;;15.59;71.61;101459.91;5036109;28;69326;-77
2022/10/31 06:16:22;;;;;;;;;21.75;17.00;;;;;15.57;71.25;101454.72;5036292;28;66588;-77
2022/10/31 06:18:47;;;;;;;;;21.50;18.50;;;;;15.57;71.03;101453.88;5035563;28;70344;-77
2022/10/31 06:21:13;;;;;;;;;22.00;18.50;;;;;15.56;71.81;101452.16;5051540;28;63614;-77
2022/10/31 06:23:39;;;;;;;;;22.25;18.50;;;;;15.56;71.42;101460.88;5035973;28;70545;-77
2022/10/31 06:26:04;;;;;;;;;23.00;16.75;;;;;15.56;71.57;101457.41;5035527;28;47170;-77
2022/10/31 06:28:29;;;;;;;;;16.75;15.00;;;;;15.56;71.45;101452.16;5036666;28;47819;-78
2022/10/31 06:30:55;;;;;;;;;17.25;15.75;;;;;15.56;71.46;101447.75;5035991;28;67995;-78
2022/10/31 06:33:20;;;;;;;;;18.00;16.25;;;;;15.59;71.61;101452.88;5036417;28;45387;-77
2022/10/31 06:35:47;;;;;;;;;26.00;18.25;;;;;15.60;71.67;101448.47;5036367;28;46138;-77
2022/10/31 06:38:13;;;;;;;;;21.00;14.00;;;;;15.60;71.31;101445.84;5035438;28;45300;-77
2022/10/31 06:40:38;;;;;;;;;23.50;16.75;;;;;15.60;71.33;101445.84;5036791;28;45312;-77
2022/10/31 06:43:04;;;;;;;;;17.50;16.00;;;;;15.58;71.78;101445.06;5036169;28;51159;-77
2022/10/31 06:45:29;;;;;;;;;21.50;16.50;;;;;15.59;71.78;101445.00;5034226;28;69145;-77
2022/10/31 06:47:55;;;;;;;;;21.50;17.00;;;;;15.60;71.35;101436.25;5036081;28;51470;-77
2022/10/31 06:50:22;;;;;;;;;22.00;18.00;;;;;15.61;71.89;101429.22;5036625;28;45495;-77
2022/10/31 06:52:54;;;;;;;;;19.00;15.25;;;;;15.59;71.54;101434.50;5036481;28;45311;-77
2022/10/31 06:55:22;;;;;;;;;23.00;17.25;;;;;15.58;71.40;101429.31;5035290;28;45419;-77
2022/10/31 06:57:58;;;;;;;;;23.50;20.00;;;;;15.56;71.58;101436.41;5036252;28;45834;-77
2022/10/31 07:00:24;;;;;;;;;19.00;16.00;;;;;15.57;71.95;101444.22;5036368;28;45354;-77
2022/10/31 07:03:13;;;;;;;;;17.25;13.25;;;;;15.59;71.71;101434.50;5036023;28;45295;-77
2022/10/31 07:05:39;;;;;;;;;24.50;17.75;;;;;15.61;71.81;101434.47;5026949;28;45633;-77
2022/10/31 07:08:06;;;;;;;;;20.00;17.75;;;;;15.62;71.71;101429.16;5034697;28;45266;-77
2022/10/31 07:10:33;;;;;;;;;22.50;18.50;;;;;15.64;71.98;101427.31;5036258;28;45362;-78
2022/10/31 07:13:00;;;;;;;;;19.00;17.75;;;;;15.66;71.93;101425.50;5036147;28;45662;-78
2022/10/31 07:15:28;;;;;;;;;18.00;15.25;;;;;15.70;71.95;101417.50;5035957;28;46225;-77
2022/10/31 07:17:53;;;;;;;;;21.50;18.25;;;;;15.71;71.73;101425.28;5035882;28;45488;-78
2022/10/31 07:20:19;;;;;;;;;16.25;12.50;;;;;15.75;71.46;101426.94;5040817;28;61979;-77
2022/10/31 07:22:45;;;;;;;;;16.25;13.25;;;;;15.76;71.40;101426.00;5021582;28;45446;-77
2022/10/31 07:25:11;;;;;;;;;19.25;14.25;;;;;15.79;71.47;101419.81;5056073;28;45411;-76
2022/10/31 07:27:37;;;;;;;;;22.50;18.25;;;;;15.81;71.10;101417.97;5055988;28;45331;-77
2022/10/31 07:30:03;;;;;;;;;21.25;16.75;;;;;15.82;71.63;101425.78;5038183;28;45490;-77
2022/10/31 07:32:37;;;;;;;;;20.50;18.00;;;;;15.81;71.16;101424.06;5055730;28;45384;-78
2022/10/31 07:35:02;;;;;;;;;18.00;14.50;;;;;15.80;71.37;101418.88;5055766;28;46450;-77
2022/10/31 07:37:28;;;;;;;;;19.00;16.00;;;;;15.81;71.16;101424.06;5055933;28;45450;-76
2022/10/31 07:39:53;;;;;;;;;20.00;14.00;;;;;15.82;71.51;101414.41;5056042;28;45364;-77
2022/10/31 07:42:18;;;;;;;;;20.75;17.25;;;;;15.84;71.50;101418.69;5055079;28;66446;-77
2022/10/31 07:44:44;;;;;;;;;15.00;12.50;;;;;15.87;71.69;101415.94;5054972;28;61311;-77
2022/10/31 07:47:09;;;;;;;;;18.25;18.25;;;;;15.90;71.33;101421.97;5054507;28;69860;-77
2022/10/31 07:49:35;;;;;;;;;24.00;18.00;;;;;15.92;71.27;101418.38;5036906;28;66643;-77
2022/10/31 07:52:00;;;;;;;;;21.25;17.25;;;;;15.94;71.52;101429.69;5055823;28;45301;-78
2022/10/31 07:54:25;;;;;;;;;14.25;13.00;;;;;15.98;71.30;101431.25;5055565;28;46212;-77
2022/10/31 07:56:51;;;;;;;;;19.75;14.50;;;;;15.99;71.02;101427.72;5054596;28;72238;-77
2022/10/31 07:59:16;;;;;;;;;18.50;15.50;;;;;15.98;70.72;101422.53;5054766;28;66643;-77
2022/10/31 08:01:41;;;;;;;;;20.25;15.50;;;;;15.96;71.12;101419.13;5054549;28;64585;-77
2022/10/31 08:04:07;;;;;;;;;18.25;15.00;;;;;15.96;71.04;101417.34;5055418;28;46038;-77
2022/10/31 08:06:34;;;;;;;;;16.25;14.50;;;;;15.97;71.19;101418.19;5055460;28;45300;-77
2022/10/31 08:08:59;;;;;;;;;16.50;14.50;;;;;15.97;70.89;101407.69;5055658;28;45389;-77
2022/10/31 08:11:24;;;;;;;;;17.75;13.75;;;;;15.97;70.90;101411.19;5054786;28;63897;-77
2022/10/31 08:13:50;;;;;;;;;19.00;17.00;;;;;15.97;70.84;101405.06;5054762;28;66701;-78
2022/10/31 08:16:15;;;;;;;;;20.75;15.50;;;;;15.99;71.08;101405.84;5054095;28;71401;-77
2022/10/31 08:18:40;;;;;;;;;25.75;17.75;;;;;16.03;71.66;101405.66;5036706;28;68165;-77
2022/10/31 08:21:06;;;;;;;;;21.75;18.25;;;;;16.09;71.44;101407.19;5057343;28;45387;-77
2022/10/31 08:23:31;;;;;;;;;18.00;14.00;;;;;16.16;71.52;101413.06;5058048;28;66462;-77
2022/10/31 08:25:57;;;;;;;;;16.25;13.25;;;;;16.24;71.21;101405.69;5058064;28;70088;-77
2022/10/31 08:28:22;;;;;;;;;22.50;16.50;;;;;16.30;71.23;101397.56;5058112;28;62769;-77
2022/10/31 08:30:48;;;;;;;;;16.50;15.00;;;;;16.36;70.89;101397.31;5057722;28;62436;-77
2022/10/31 08:33:16;;;;;;;;;21.00;17.00;;;;;16.40;70.50;101391.00;5058678;28;47283;-77
2022/10/31 08:35:42;;;;;;;;;15.00;13.25;;;;;16.44;70.57;101381.22;5058530;28;45453;-77
2022/10/31 08:38:11;;;;;;;;;19.75;17.75;;;;;16.48;70.56;101381.94;5058658;28;45431;-77
2022/10/31 08:40:37;;;;;;;;;19.75;15.00;;;;;16.52;70.35;101368.56;5040767;28;45331;-77
2022/10/31 08:43:05;;;;;;;;;15.00;14.00;;;;;16.55;70.20;101362.34;5057977;28;46242;-78
2022/10/31 08:45:32;;;;;;;;;20.50;15.50;;;;;16.59;70.39;101359.50;5058552;28;45306;-77
2022/10/31 08:47:58;;;;;;;;;15.25;13.50;;;;;16.63;69.84;101358.44;5058730;28;45240;-77
2022/10/31 08:50:24;;;;;;;;;16.75;14.25;;;;;16.68;70.32;101353.00;5058600;28;45353;-77
2022/10/31 08:52:49;;;;;;;;;21.75;16.50;;;;;16.77;70.48;101343.81;5057358;28;72714;-77
2022/10/31 08:55:15;;;;;;;;;22.50;16.00;;;;;16.87;70.35;101341.69;5057840;28;61281;-77
2022/10/31 08:57:41;;;;;;;;;15.25;14.00;;;;;16.98;69.81;101336.78;5039118;28;69034;-77
2022/10/31 09:00:07;;;;;;;;;20.25;14.00;;;;;17.14;69.77;101329.00;5058375;28;45426;-77
2022/10/31 09:02:32;;;;;;;;;22.75;17.50;;;;;17.28;70.05;101321.31;5058244;28;47345;-78
2022/10/31 09:04:57;;;;;;;;;23.50;16.00;;;;;17.38;69.25;101311.22;5039736;28;56828;-77
2022/10/31 09:07:23;;;;;;;;;21.50;17.25;;;;;17.50;68.91;101315.03;5057393;28;69247;-77
2022/10/31 09:09:48;;;;;;;;;25.00;18.00;;;;;17.57;68.56;101312.03;5057545;28;57611;-77
2022/10/31 09:12:13;;;;;;;;;17.00;15.75;;;;;17.66;68.20;101309.84;5056942;28;69775;-77
2022/10/31 09:14:39;;;;;;;;;23.75;15.75;;;;;17.73;68.38;101314.75;5057415;28;62172;-77
2022/10/31 09:17:04;;;;;;;;;22.75;18.50;;;;;17.81;68.46;101311.72;5057255;28;68925;-78
2022/10/31 09:19:30;;;;;;;;;21.50;18.00;;;;;17.87;67.89;101300.94;5056967;28;70147;-77
2022/10/31 09:21:55;;;;;;;;;20.00;16.75;;;;;17.94;67.88;101297.06;5057718;28;46109;-77
2022/10/31 09:24:20;;;;;;;;;19.50;17.50;;;;;18.02;67.11;101294.03;5057098;28;65474;-77
2022/10/31 09:26:46;;;;;;;;;19.50;17.00;;;;;18.04;67.24;101281.63;5057120;28;55014;-77
2022/10/31 09:29:11;;;;;;;;;26.75;20.00;;;;;18.08;67.35;101284.97;5057158;28;65763;-77
2022/10/31 09:31:36;;;;;;;;;23.50;18.25;;;;;18.11;66.80;101282.19;5056545;28;75710;-77
2022/10/31 09:34:02;;;;;;;;;23.75;18.50;;;;;18.10;66.72;101267.28;5056841;28;66451;-78
2022/10/31 09:36:27;;;;;;;;;16.50;14.25;;;;;18.09;66.68;101260.31;5057041;28;63563;-77
2022/10/31 09:38:53;;;;;;;;;23.25;16.75;;;;;18.10;66.55;101256.75;5056930;28;63800;-78
2022/10/31 09:41:19;;;;;;;;;19.25;15.75;;;;;18.13;66.74;101259.25;5056602;28;63281;-78
2022/10/31 09:43:52;;;;;;;;;22.50;20.75;;;;;18.17;66.47;101252.88;5039392;28;45297;-77
2022/10/31 09:46:36;;;;;;;;;25.00;17.00;;;;;18.22;66.54;101249.97;5057644;28;45722;-77
2022/10/31 09:49:29;;;;;;;;;17.50;16.00;;;;;18.26;66.47;101243.63;5057665;28;45282;-78
2022/10/31 09:52:14;;;;;;;;;21.00;16.75;;;;;18.32;66.34;101251.19;5057471;28;47390;-77
2022/10/31 09:54:52;;;;;;;;;21.00;16.75;;;;;18.35;65.94;101245.78;5039408;28;45430;-77
2022/10/31 09:57:24;;;;;;;;;22.50;19.75;;;;;18.37;66.51;101241.28;5039273;28;45349;-77
2022/10/31 09:59:49;;;;;;;;;23.75;19.50;;;;;18.41;65.84;101234.91;5039449;28;45436;-77
2022/10/31 10:02:59;;;;;;;;;23.25;20.50;;;;;18.48;66.04;101238.03;5038522;28;70745;-77
2022/10/31 10:05:33;;;;;;;;;19.50;18.25;;;;;18.57;65.96;101243.69;4959287;28;45657;-78
2022/10/31 10:08:34;;;;;;;;;25.50;20.00;;;;;18.68;65.57;101250.13;4959440;28;45504;-78
2022/10/31 10:11:13;;;;;;;;;21.25;18.75;;;;;18.78;65.77;101227.63;4897900;29;45447;-77
2022/10/31 10:13:48;;;;;;;;;17.00;16.25;;;;;18.90;65.35;101218.19;4898128;29;49617;-77
2022/10/31 10:16:51;;;;;;;;;17.50;15.75;;;;;19.04;65.74;101220.91;4898272;29;45450;-77
2022/10/31 10:19:30;;;;;;;;;21.50;17.00;;;;;19.18;64.66;101211.34;4882544;29;45349;-78
2022/10/31 10:21:58;;;;;;;;;18.25;16.50;;;;;19.29;64.25;101196.56;4898224;29;45481;-77
2022/10/31 10:24:30;;;;;;;;;21.00;16.00;;;;;19.36;63.97;101175.97;4897761;29;47237;-78
2022/10/31 10:27:10;;;;;;;;;25.75;17.75;;;;;19.33;64.13;101176.13;4898288;29;45486;-77
2022/10/31 10:29:44;;;;;;;;;21.00;14.75;;;;;19.29;63.46;101167.53;4882674;29;45504;-77
2022/10/31 10:32:25;;;;;;;;;20.00;18.25;;;;;19.29;63.99;101169.34;4882426;29;45460;-77
2022/10/31 10:35:11;;;;;;;;;20.75;15.25;;;;;19.31;63.87;101170.09;4892890;28;45975;-77
2022/10/31 10:37:41;;;;;;;;;20.25;17.00;;;;;19.37;63.61;101179.44;4955500;28;45799;-77
2022/10/31 10:40:27;;;;;;;;;22.00;17.00;;;;;19.49;63.48;101160.25;4955524;28;45489;-78
2022/10/31 10:43:23;;;;;;;;;19.25;14.75;;;;;19.56;63.35;101148.38;4938552;28;45559;-77
2022/10/31 10:49:17;;;;;;;;;17.75;13.75;;;;;19.75;62.50;101149.94;5016597;28;45413;-78
2022/10/31 10:51:42;;;;;;;;;21.75;15.50;;;;;19.89;61.48;101148.16;5016673;28;45532;-77
2022/10/31 10:54:26;;;;;;;;;13.00;13.00;;;;;20.06;61.98;101146.25;5016357;28;45406;-78
2022/10/31 10:56:58;;;;;;;;;13.75;11.25;;;;;20.34;61.59;101126.00;5016138;28;45636;-77
2022/10/31 10:59:23;;;;;;;;;19.25;14.75;;;;;20.76;61.15;101106.53;5014987;28;46233;-78
2022/10/31 11:01:51;;;;;;;;;20.00;15.00;;;;;21.13;60.36;101090.84;5016436;28;45880;-78
2022/10/31 11:04:28;;;;;;;;;21.25;15.75;;;;;21.40;58.99;101072.22;5015243;28;45435;-77
2022/10/31 11:07:05;;;;;;;;;14.00;13.50;;;;;21.61;58.79;101055.81;5016201;28;45501;-78
2022/10/31 11:09:31;;;;;;;;;16.00;12.75;;;;;21.93;58.59;101044.72;5015805;28;45394;-78
2022/10/31 11:11:57;;;;;;;;;16.75;14.50;;;;;22.74;57.46;101046.72;5015109;28;45321;-77
2022/10/31 11:14:23;;;;;;;;;16.75;13.00;;;;;24.40;55.79;101043.47;5016231;28;45429;-77
2022/10/31 11:16:53;;;;;;;;;16.25;15.00;;;;;25.95;53.24;101049.91;5016053;28;45409;-78
2022/10/31 11:19:22;;;;;;;;;18.50;14.75;;;;;27.14;49.91;101050.59;5016134;28;45387;-78
2022/10/31 11:21:48;;;;;;;;;18.00;12.75;;;;;27.95;49.34;101041.97;5014773;28;45510;-78
2022/10/31 11:24:19;;;;;;;;;12.50;11.00;;;;;28.61;47.80;101043.50;5014478;28;45336;-78